< Typhoon 197421 1974 Season Typhoon 197423 >
Typhoon 197422 (AGNES)
General InformationTrack Information on Google Maps || Disaster Info.ResourceGoogle EarthGE AnimationAtom FeedGeoJSON
Detalied Best Track (Time Zone = UTC)
Year Month Day Hour Lat. Long. Pressure (hPa) Wind (kt) Class Image Chart
1974 9 21 00 18.0 161.5 1008 0 2 -- Chart
1974 9 21 06 18.1 161.1 1004 0 2 -- Chart
1974 9 21 12 18.4 160.4 1004 0 2 -- Chart
1974 9 21 18 18.7 159.5 1004 0 2 -- Chart
1974 9 22 00 19.0 158.7 1004 0 2 -- Chart
1974 9 22 06 19.5 157.8 1000 0 2 -- Chart
1974 9 22 12 20.6 157.7 1000 0 2 -- Chart
1974 9 22 18 21.6 158.3 1000 0 2 -- Chart
1974 9 23 00 22.3 158.0 1000 0 2 -- Chart
1974 9 23 06 22.4 157.5 1000 0 2 -- Chart
1974 9 23 12 22.5 156.8 1000 0 2 -- Chart
1974 9 23 18 22.5 156.3 1000 0 2 -- Chart
1974 9 24 00 22.4 155.6 1000 0 2 -- Chart
1974 9 24 06 22.4 155.2 998 0 2 -- Chart
1974 9 24 12 22.7 154.8 998 0 2 -- Chart
1974 9 24 18 22.9 154.4 996 0 9 -- Chart
1974 9 25 00 23.3 154.2 994 0 9 -- Chart
1974 9 25 06 23.6 153.8 994 0 9 -- Chart
1974 9 25 12 23.8 153.6 990 0 9 -- Chart
1974 9 25 18 23.9 153.2 990 0 9 -- Chart
1974 9 26 00 24.2 152.7 990 0 9 -- Chart
1974 9 26 06 24.3 152.4 985 0 9 -- Chart
1974 9 26 12 24.5 152.1 985 0 9 -- Chart
1974 9 26 18 24.7 151.7 980 0 9 -- Chart
1974 9 27 00 24.9 151.1 980 0 9 -- Chart
1974 9 27 06 25.3 150.7 975 0 9 -- Chart
1974 9 27 12 25.6 150.5 975 0 9 -- Chart
1974 9 27 18 26.2 150.4 970 0 9 -- Chart
1974 9 28 00 26.7 150.5 970 0 9 -- Chart
1974 9 28 06 27.4 150.3 970 0 9 -- Chart
1974 9 28 12 28.3 150.3 970 0 9 -- Chart
1974 9 28 18 29.1 150.5 970 0 9 -- Chart
1974 9 29 00 29.6 151.6 970 0 9 -- Chart
1974 9 29 06 29.8 152.6 970 0 9 -- Chart
1974 9 29 12 30.0 153.5 970 0 9 -- Chart
1974 9 29 18 30.0 154.5 965 0 9 -- Chart
1974 9 30 00 30.5 155.7 965 0 9 -- Chart
1974 9 30 06 31.4 158.0 960 0 9 -- Chart
1974 9 30 12 32.6 160.5 960 0 9 -- Chart
1974 9 30 18 33.8 162.3 965 0 9 -- Chart
1974 10 1 00 35.3 163.6 965 0 9 -- Chart
1974 10 1 06 36.8 165.1 970 0 9 -- Chart
1974 10 1 12 38.6 167.7 970 0 9 -- Chart
1974 10 1 18 40.5 171.0 970 0 9 -- Chart
1974 10 2 00 43.0 174.0 975 0 9 -- Chart
1974 10 2 06 44.5 174.5 975 0 9 -- Chart
1974 10 2 12 46.4 173.6 975 0 9 -- Chart
1974 10 2 18 47.4 173.0 980 0 9 -- Chart
1974 10 3 00 48.5 172.5 980 0 6 -- Chart
1974 10 3 06 49.0 174.0 980 0 6 -- Chart
1974 10 3 12 49.0 176.0 980 0 6 -- Chart
1974 10 3 18 49.4 178.0 978 0 6 -- Chart
1974 10 4 00 50.0 180.0 980 0 6 -- Chart
Japan Meteorological Agency Best Track Data | Correction Date : 1992-01-27
< Typhoon 197421 1974 Season Typhoon 197423 >

Help